Time;durP1;ratioP1;P1;durP2;ratioP2;P2;SDS_P1;SDS_P2;PMS_P1;PMS_P2;Temp;Humidity;BMP_temperature;BMP_pressure;BME280_temperature;BME280_humidity;BME280_pressure;Samples;Min_cycle;Max_cycle;Signal;HPM_P1;HPM_P2
2023/05/25 00:00:25;;;;;;;;;;;;;;;13.23;76.87;92844.13;2054578;69;20053;-76
2023/05/25 00:02:53;;;;;;;;;;;;;;;13.14;77.09;92842.19;2054544;69;20114;-76
2023/05/25 00:05:19;;;;;;;;;;;;;;;12.65;79.62;92833.91;2054782;69;20070;-76
2023/05/25 00:07:45;;;;;;;;;;;;;;;12.97;78.80;92834.94;2054581;69;20053;-76
2023/05/25 00:10:12;;;;;;;;;;;;;;;13.17;77.18;92846.59;2054034;70;20485;-76
2023/05/25 00:12:37;;;;;;;;;;;;;;;12.97;77.79;92846.25;2054549;69;20062;-75
2023/05/25 00:15:06;;;;;;;;;;;;;;;13.08;76.62;92839.78;2054536;69;20049;-75
2023/05/25 00:17:35;;;;;;;;;;;;;;;13.12;76.82;92845.66;2054668;70;20053;-75
2023/05/25 00:20:06;;;;;;;;;;;;;;;13.10;77.91;92844.78;2053735;70;20434;-76
2023/05/25 00:22:37;;;;;;;;;;;;;;;13.20;76.45;92848.91;2054529;69;20046;-76
2023/05/25 00:25:04;;;;;;;;;;;;;;;13.23;76.52;92847.69;2054348;69;20046;-75
2023/05/25 00:27:30;;;;;;;;;;;;;;;13.26;76.35;92851.34;2054307;69;20553;-75
2023/05/25 00:29:55;;;;;;;;;;;;;;;13.30;75.90;92857.22;2053942;70;20091;-75
2023/05/25 00:32:22;;;;;;;;;;;;;;;13.07;76.72;92854.53;2054302;69;20498;-76
2023/05/25 00:34:49;;;;;;;;;;;;;;;13.12;76.50;92853.41;2054528;69;20050;-76
2023/05/25 00:37:16;;;;;;;;;;;;;;;13.16;76.46;92854.34;2052104;69;20062;-75
2023/05/25 00:39:42;;;;;;;;;;;;;;;13.10;77.04;92847.63;2048511;70;20087;-74
2023/05/25 00:42:08;;;;;;;;;;;;;;;13.18;76.04;92854.44;2047434;70;20499;-75
2023/05/25 00:44:33;;;;;;;;;;;;;;;12.75;77.71;92850.69;2047453;70;20147;-75
2023/05/25 00:47:01;;;;;;;;;;;;;;;12.91;77.63;92848.72;2048190;70;20067;-76
2023/05/25 00:49:29;;;;;;;;;;;;;;;12.78;77.97;92852.25;2047600;70;20055;-76
2023/05/25 00:51:56;;;;;;;;;;;;;;;13.03;76.42;92855.06;2047399;70;20063;-74
2023/05/25 00:54:22;;;;;;;;;;;;;;;13.06;77.12;92856.63;2047812;70;20063;-74
2023/05/25 00:57:06;;;;;;;;;;;;;;;13.06;76.02;92858.72;2047722;70;20051;-75
2023/05/25 00:59:40;;;;;;;;;;;;;;;13.01;75.90;92854.94;2048058;70;20492;-75
2023/05/25 01:02:09;;;;;;;;;;;;;;;13.11;75.46;92860.41;2048204;70;20090;-75
2023/05/25 01:04:37;;;;;;;;;;;;;;;13.11;75.93;92858.31;2048133;70;20098;-76
2023/05/25 01:07:05;;;;;;;;;;;;;;;13.17;76.18;92857.91;2047563;70;20595;-76
2023/05/25 01:09:33;;;;;;;;;;;;;;;13.16;75.71;92865.66;2048152;70;20062;-75
2023/05/25 01:12:03;;;;;;;;;;;;;;;13.19;75.57;92849.53;2048126;70;20055;-74
2023/05/25 01:14:30;;;;;;;;;;;;;;;13.16;75.34;92854.34;2044471;70;20255;-76
2023/05/25 01:16:56;;;;;;;;;;;;;;;13.16;75.60;92854.34;2047129;70;20237;-75
2023/05/25 01:19:25;;;;;;;;;;;;;;;13.16;75.82;92853.63;2047992;70;20431;-76
2023/05/25 01:21:57;;;;;;;;;;;;;;;13.13;76.21;92858.41;2047999;70;20499;-76
2023/05/25 01:24:31;;;;;;;;;;;;;;;13.20;75.50;92856.66;2047442;70;20061;-76
2023/05/25 01:27:01;;;;;;;;;;;;;;;13.17;75.86;92860.72;2048031;70;20058;-75
2023/05/25 01:29:27;;;;;;;;;;;;;;;13.20;75.72;92863.06;2047527;70;20082;-75
2023/05/25 01:31:54;;;;;;;;;;;;;;;13.19;75.82;92860.84;2048105;70;20508;-75
2023/05/25 01:34:20;;;;;;;;;;;;;;;13.20;75.41;92860.22;2047946;70;20551;-75
2023/05/25 01:36:45;;;;;;;;;;;;;;;13.25;74.80;92866.84;2048072;70;20078;-76
2023/05/25 01:39:15;;;;;;;;;;;;;;;13.27;74.71;92861.31;2047489;70;20424;-74
2023/05/25 01:41:40;;;;;;;;;;;;;;;13.21;75.94;92863.78;2047963;70;20122;-74
2023/05/25 01:44:06;;;;;;;;;;;;;;;13.23;75.15;92867.47;2048024;70;20062;-75
2023/05/25 01:46:36;;;;;;;;;;;;;;;13.11;76.71;92868.91;2047393;70;20055;-74
2023/05/25 01:49:11;;;;;;;;;;;;;;;13.21;75.21;92878.66;2047957;70;20055;-75
2023/05/25 01:51:40;;;;;;;;;;;;;;;13.19;76.04;92874.97;2047983;70;20059;-76
2023/05/25 01:54:18;;;;;;;;;;;;;;;13.13;76.85;92881.03;2047478;70;20055;-75
2023/05/25 01:56:47;;;;;;;;;;;;;;;13.21;75.52;92880.75;2044560;70;20099;-75
2023/05/25 01:59:18;;;;;;;;;;;;;;;13.18;75.78;92885.53;2047027;70;20527;-75
2023/05/25 02:01:46;;;;;;;;;;;;;;;13.17;76.51;92883.34;2047862;70;20126;-75
2023/05/25 02:04:13;;;;;;;;;;;;;;;13.18;75.85;92882.72;2047252;70;20059;-73
2023/05/25 02:06:38;;;;;;;;;;;;;;;13.25;74.70;92888.75;2047342;70;20063;-74
2023/05/25 02:09:05;;;;;;;;;;;;;;;13.16;76.17;92887.53;2048144;70;20422;-75
2023/05/25 02:11:30;;;;;;;;;;;;;;;13.22;75.37;92899.19;2047298;70;20146;-74
2023/05/25 02:13:58;;;;;;;;;;;;;;;13.17;75.92;92900.31;2047845;70;20498;-74
2023/05/25 02:16:26;;;;;;;;;;;;;;;13.26;75.09;92898.69;2047627;70;20059;-75
2023/05/25 02:18:51;;;;;;;;;;;;;;;13.20;75.61;92891.31;2047788;70;20051;-75
2023/05/25 02:21:17;;;;;;;;;;;;;;;13.19;75.66;92889.84;2047452;70;20047;-75
2023/05/25 02:23:43;;;;;;;;;;;;;;;13.15;76.11;92886.06;2047275;70;20077;-75
2023/05/25 02:26:09;;;;;;;;;;;;;;;13.21;75.54;92883.56;2048008;70;20087;-75
2023/05/25 02:28:36;;;;;;;;;;;;;;;13.21;75.72;92892.78;2047448;70;20086;-75
2023/05/25 02:31:02;;;;;;;;;;;;;;;13.13;76.42;92898.00;2047250;70;20079;-75
2023/05/25 02:33:27;;;;;;;;;;;;;;;13.11;76.30;92897.91;2044725;70;20043;-75
2023/05/25 02:35:53;;;;;;;;;;;;;;;13.12;76.63;92892.97;2047616;70;20047;-75
2023/05/25 02:38:19;;;;;;;;;;;;;;;13.17;76.24;92889.00;2047393;70;20274;-75
2023/05/25 02:40:45;;;;;;;;;;;;;;;13.08;75.65;92893.47;2048390;70;20142;-75
2023/05/25 02:43:11;;;;;;;;;;;;;;;13.02;76.57;92895.25;2047424;70;20198;-75
2023/05/25 02:45:37;;;;;;;;;;;;;;;13.03;76.17;92893.88;2047490;70;20563;-76
2023/05/25 02:48:03;;;;;;;;;;;;;;;13.00;76.02;92895.84;2048105;70;20076;-75
2023/05/25 02:50:29;;;;;;;;;;;;;;;13.01;76.55;92896.59;2047646;70;20459;-75
2023/05/25 02:52:58;;;;;;;;;;;;;;;13.06;75.90;92896.19;2047567;70;20059;-75
2023/05/25 02:55:24;;;;;;;;;;;;;;;13.04;76.85;92909.47;2047628;70;20460;-75
2023/05/25 02:57:51;;;;;;;;;;;;;;;12.95;77.40;92913.94;2047926;70;20059;-75
2023/05/25 03:00:33;;;;;;;;;;;;;;;12.97;77.21;92911.25;2047517;70;20047;-75
2023/05/25 03:03:02;;;;;;;;;;;;;;;12.98;76.68;92910.63;2047412;70;20142;-75
2023/05/25 03:05:27;;;;;;;;;;;;;;;13.03;77.00;92914.41;2047541;70;20094;-75
2023/05/25 03:07:53;;;;;;;;;;;;;;;13.01;76.89;92917.09;2048039;70;20150;-75
2023/05/25 03:10:19;;;;;;;;;;;;;;;13.10;76.41;92912.63;2047924;70;20051;-75
2023/05/25 03:12:44;;;;;;;;;;;;;;;12.99;77.01;92922.66;2047888;70;20058;-75
2023/05/25 03:15:14;;;;;;;;;;;;;;;13.02;76.44;92923.50;2047924;70;20047;-75
2023/05/25 03:17:41;;;;;;;;;;;;;;;12.96;76.60;92926.72;2047965;70;20158;-75
2023/05/25 03:20:09;;;;;;;;;;;;;;;12.97;76.74;92931.03;2048580;70;20535;-75
2023/05/25 03:22:36;;;;;;;;;;;;;;;12.99;76.87;92925.47;2047844;70;20047;-76
2023/05/25 03:25:02;;;;;;;;;;;;;;;12.97;77.60;92933.84;2047815;70;20051;-76
2023/05/25 03:27:27;;;;;;;;;;;;;;;12.93;77.64;92934.34;2047700;70;20492;-76
2023/05/25 03:29:53;;;;;;;;;;;;;;;13.04;76.70;92932.81;2047887;70;20046;-76
2023/05/25 03:32:20;;;;;;;;;;;;;;;13.03;77.07;92937.00;2048418;70;20153;-76
2023/05/25 03:34:45;;;;;;;;;;;;;;;13.01;77.01;92936.16;2048458;70;20047;-76
2023/05/25 03:37:14;;;;;;;;;;;;;;;13.03;76.50;92939.84;2045151;70;20047;-76
2023/05/25 03:39:41;;;;;;;;;;;;;;;12.95;77.23;92934.47;2047815;70;20461;-75
2023/05/25 03:42:07;;;;;;;;;;;;;;;13.02;77.08;92941.19;2048347;70;20119;-75
2023/05/25 03:44:33;;;;;;;;;;;;;;;13.08;76.62;92938.69;2047907;70;20090;-76
2023/05/25 03:46:58;;;;;;;;;;;;;;;13.06;76.41;92937.88;2045097;70;20062;-76
2023/05/25 03:49:23;;;;;;;;;;;;;;;13.10;76.18;92947.31;2048383;70;20430;-75
2023/05/25 03:51:49;;;;;;;;;;;;;;;13.09;76.49;92951.47;2047803;70;20534;-76
2023/05/25 03:54:15;;;;;;;;;;;;;;;13.13;76.54;92953.78;2047878;70;20089;-76
2023/05/25 03:56:41;;;;;;;;;;;;;;;13.14;76.18;92955.25;2047885;70;20058;-76
2023/05/25 03:59:08;;;;;;;;;;;;;;;12.97;77.10;92962.84;2048300;70;20146;-76
2023/05/25 04:01:36;;;;;;;;;;;;;;;13.03;76.54;92962.44;2045133;70;20107;-75
2023/05/25 04:04:02;;;;;;;;;;;;;;;12.68;78.62;92966.13;2047784;70;20059;-76
2023/05/25 04:06:28;;;;;;;;;;;;;;;12.75;77.57;92974.97;2048468;70;20047;-76
2023/05/25 04:08:56;;;;;;;;;;;;;;;12.80;77.11;92983.06;2048361;70;20051;-76
2023/05/25 04:11:23;;;;;;;;;;;;;;;12.84;77.30;92977.63;2047781;70;20055;-76
2023/05/25 04:13:48;;;;;;;;;;;;;;;12.96;75.44;92971.94;2048376;70;20464;-76
2023/05/25 04:16:14;;;;;;;;;;;;;;;12.82;76.72;92974.69;2048440;70;20047;-76
2023/05/25 04:18:41;;;;;;;;;;;;;;;12.96;75.77;92969.09;2048401;70;20115;-76
2023/05/25 04:21:06;;;;;;;;;;;;;;;13.07;74.39;92970.41;2047731;70;20109;-76
2023/05/25 04:23:32;;;;;;;;;;;;;;;12.81;76.46;92978.13;2047795;70;20051;-76
2023/05/25 04:26:02;;;;;;;;;;;;;;;12.62;76.88;92985.56;2047815;70;20502;-76
2023/05/25 04:28:29;;;;;;;;;;;;;;;12.83;76.00;92978.25;2047684;70;20055;-76
2023/05/25 04:30:59;;;;;;;;;;;;;;;12.87;77.00;92989.78;2048442;70;20467;-75
2023/05/25 04:33:40;;;;;;;;;;;;;;;12.93;76.72;92995.78;2048456;70;20575;-76
2023/05/25 04:36:14;;;;;;;;;;;;;;;13.00;77.03;92996.84;2045293;70;20058;-75
2023/05/25 04:38:41;;;;;;;;;;;;;;;12.90;76.84;93003.41;2047749;70;20133;-76
2023/05/25 04:41:07;;;;;;;;;;;;;;;13.00;76.14;93006.06;2047728;70;20506;-76
2023/05/25 04:43:34;;;;;;;;;;;;;;;13.11;75.41;93013.78;2047658;70;20484;-77
2023/05/25 04:46:00;;;;;;;;;;;;;;;13.09;75.15;93002.34;2047729;70;20050;-76
2023/05/25 04:48:27;;;;;;;;;;;;;;;13.20;75.43;93012.88;2045159;70;20633;-76
2023/05/25 04:51:01;;;;;;;;;;;;;;;12.87;76.84;93018.03;2047652;70;20114;-76
2023/05/25 04:53:29;;;;;;;;;;;;;;;13.05;76.08;93015.50;2047722;70;20084;-76
2023/05/25 04:55:57;;;;;;;;;;;;;;;13.03;76.02;93015.41;2047666;70;20051;-76
2023/05/25 04:58:23;;;;;;;;;;;;;;;12.80;77.10;93022.59;2047636;70;20146;-76
2023/05/25 05:00:48;;;;;;;;;;;;;;;12.62;77.67;93022.28;2048268;70;20146;-76
2023/05/25 05:03:14;;;;;;;;;;;;;;;12.12;80.46;93026.41;2047594;70;20047;-76
2023/05/25 05:05:39;;;;;;;;;;;;;;;12.24;80.81;93023.56;2044929;70;20499;-76
2023/05/25 05:08:08;;;;;;;;;;;;;;;12.60;79.23;93030.66;2047592;70;20043;-76
2023/05/25 05:10:35;;;;;;;;;;;;;;;12.34;80.03;93034.72;2047617;70;20063;-76
2023/05/25 05:13:01;;;;;;;;;;;;;;;12.58;79.18;93036.16;2047592;70;20214;-76
2023/05/25 05:15:32;;;;;;;;;;;;;;;12.75;78.42;93035.03;2047781;70;20051;-76
2023/05/25 05:17:59;;;;;;;;;;;;;;;12.62;78.24;93039.22;2047552;70;20055;-76
2023/05/25 05:20:25;;;;;;;;;;;;;;;12.75;78.34;93032.22;2048153;70;20043;-75
2023/05/25 05:22:52;;;;;;;;;;;;;;;12.91;77.60;93044.44;2047657;70;20534;-74
2023/05/25 05:25:18;;;;;;;;;;;;;;;12.94;77.51;93043.19;2044903;70;20063;-75
2023/05/25 05:27:44;;;;;;;;;;;;;;;13.00;77.05;93045.63;2047424;70;20499;-75
2023/05/25 05:30:16;;;;;;;;;;;;;;;13.04;76.79;93045.88;2047636;70;20047;-76
2023/05/25 05:32:42;;;;;;;;;;;;;;;13.23;76.31;93048.41;2048239;70;20043;-75
2023/05/25 05:35:09;;;;;;;;;;;;;;;13.35;76.28;93056.09;2047724;70;20062;-76
2023/05/25 05:37:45;;;;;;;;;;;;;;;12.76;78.25;93049.88;2047671;70;20054;-76
2023/05/25 05:40:11;;;;;;;;;;;;;;;13.09;77.96;93063.78;2047468;70;20051;-77
2023/05/25 05:42:39;;;;;;;;;;;;;;;13.16;76.26;93069.19;2047545;70;20063;-77
2023/05/25 05:45:05;;;;;;;;;;;;;;;13.36;77.06;93074.53;2047578;70;20061;-77
2023/05/25 05:47:30;;;;;;;;;;;;;;;13.63;76.06;93074.66;2047777;70;20085;-77
2023/05/25 05:49:56;;;;;;;;;;;;;;;13.58;75.45;93075.06;2047536;70;20522;-76
2023/05/25 05:52:21;;;;;;;;;;;;;;;13.61;75.35;93082.31;2044808;70;20483;-76
2023/05/25 05:54:47;;;;;;;;;;;;;;;13.06;77.96;93082.75;2048052;70;20055;-77
2023/05/25 05:57:14;;;;;;;;;;;;;;;13.62;75.41;93089.44;2047513;70;20435;-77
2023/05/25 05:59:40;;;;;;;;;;;;;;;13.78;73.81;93081.81;2047491;70;20444;-77
2023/05/25 06:02:06;;;;;;;;;;;;;;;13.68;73.05;93084.84;2047499;70;20059;-77
2023/05/25 06:04:32;;;;;;;;;;;;;;;13.73;73.87;93083.69;2047525;70;20054;-76
2023/05/25 06:06:57;;;;;;;;;;;;;;;13.81;72.48;93091.91;2048040;70;20417;-76
2023/05/25 06:09:23;;;;;;;;;;;;;;;13.85;72.25;93089.31;2047538;70;20048;-77
2023/05/25 06:11:49;;;;;;;;;;;;;;;13.60;72.32;93100.63;2047638;70;20134;-76
2023/05/25 06:14:15;;;;;;;;;;;;;;;13.33;75.73;93101.22;2047499;70;20047;-76
2023/05/25 06:16:42;;;;;;;;;;;;;;;13.21;76.49;93101.25;2047617;70;20096;-76
2023/05/25 06:19:08;;;;;;;;;;;;;;;13.25;76.06;93110.00;2047592;70;20479;-77
2023/05/25 06:21:33;;;;;;;;;;;;;;;13.17;77.05;93107.41;2047588;70;20047;-76
2023/05/25 06:23:59;;;;;;;;;;;;;;;13.20;77.37;93111.81;2047528;70;20062;-77
2023/05/25 06:26:26;;;;;;;;;;;;;;;12.83;77.88;93114.63;2047467;70;20090;-76
2023/05/25 06:28:51;;;;;;;;;;;;;;;13.11;76.74;93109.88;2047620;70;20464;-77
2023/05/25 06:31:17;;;;;;;;;;;;;;;13.10;77.03;93118.97;2047604;70;20062;-77
2023/05/25 06:33:43;;;;;;;;;;;;;;;13.34;76.75;93116.84;2047615;70;20058;-77
2023/05/25 06:36:08;;;;;;;;;;;;;;;13.56;74.49;93115.28;2047522;70;20083;-77
2023/05/25 06:38:34;;;;;;;;;;;;;;;13.43;75.59;93113.13;2047347;70;20559;-77
2023/05/25 06:41:04;;;;;;;;;;;;;;;13.43;74.37;93122.34;2048059;70;20446;-76
2023/05/25 06:43:30;;;;;;;;;;;;;;;13.71;74.48;93113.97;2047352;70;20080;-76
2023/05/25 06:46:16;;;;;;;;;;;;;;;13.83;74.19;93105.41;2047471;70;20039;-77
2023/05/25 06:48:42;;;;;;;;;;;;;;;13.89;72.87;93125.59;2047488;70;20055;-76
2023/05/25 06:51:08;;;;;;;;;;;;;;;13.66;73.37;93123.59;2047467;70;20419;-76
2023/05/25 06:53:33;;;;;;;;;;;;;;;13.75;73.38;93124.81;2048188;70;20480;-76
2023/05/25 06:55:59;;;;;;;;;;;;;;;13.91;72.62;93117.19;2048067;70;20043;-77
2023/05/25 06:58:24;;;;;;;;;;;;;;;14.18;72.15;93117.28;2047501;70;20055;-76
2023/05/25 07:00:50;;;;;;;;;;;;;;;14.26;72.67;93122.66;2048014;70;20070;-77
2023/05/25 07:03:15;;;;;;;;;;;;;;;14.53;71.80;93129.75;2047859;70;20051;-76
2023/05/25 07:05:41;;;;;;;;;;;;;;;14.68;69.77;93129.88;2048337;70;20055;-77
2023/05/25 07:08:06;;;;;;;;;;;;;;;14.69;69.17;93130.59;2048028;70;20142;-77
2023/05/25 07:10:32;;;;;;;;;;;;;;;14.73;71.59;93125.13;2047996;70;20158;-77
2023/05/25 07:12:58;;;;;;;;;;;;;;;14.94;69.98;93129.78;2047866;70;20493;-77
2023/05/25 07:15:23;;;;;;;;;;;;;;;15.06;68.93;93126.81;2048076;70;20047;-77
2023/05/25 07:17:48;;;;;;;;;;;;;;;15.23;69.03;93123.44;2048064;70;20047;-76
2023/05/25 07:20:14;;;;;;;;;;;;;;;15.09;67.77;93134.78;2048022;70;20047;-77
2023/05/25 07:22:40;;;;;;;;;;;;;;;14.87;67.53;93127.97;2047925;70;20091;-77
2023/05/25 07:25:05;;;;;;;;;;;;;;;15.26;66.96;93133.53;2047903;70;20055;-77
2023/05/25 07:27:32;;;;;;;;;;;;;;;15.42;66.29;93125.09;2047900;70;20051;-77
2023/05/25 07:29:58;;;;;;;;;;;;;;;15.48;67.18;93131.03;2047317;70;20043;-77
2023/05/25 07:32:23;;;;;;;;;;;;;;;15.35;66.06;93126.88;2047908;70;20423;-77
2023/05/25 07:34:48;;;;;;;;;;;;;;;15.51;65.50;93124.13;2047944;70;20058;-77
2023/05/25 07:37:14;;;;;;;;;;;;;;;15.44;65.06;93123.09;2047701;70;20058;-77
2023/05/25 07:39:40;;;;;;;;;;;;;;;15.55;67.09;93120.75;2047199;70;20094;-77
2023/05/25 07:42:06;;;;;;;;;;;;;;;15.44;64.91;93131.59;2047759;70;20047;-77
2023/05/25 07:44:31;;;;;;;;;;;;;;;15.30;64.15;93124.47;2047722;70;20051;-77
2023/05/25 07:46:57;;;;;;;;;;;;;;;15.78;66.25;93131.84;2047765;70;20055;-77
2023/05/25 07:49:22;;;;;;;;;;;;;;;16.05;66.98;93130.28;2047917;70;20484;-77
2023/05/25 07:51:48;;;;;;;;;;;;;;;15.39;62.47;93135.56;2047857;70;20146;-77
2023/05/25 07:54:13;;;;;;;;;;;;;;;15.92;62.57;93129.69;2048011;70;20051;-77
2023/05/25 07:56:38;;;;;;;;;;;;;;;16.61;63.31;93134.28;2048455;70;20049;-77
2023/05/25 07:59:05;;;;;;;;;;;;;;;16.44;63.84;93127.09;2048171;70;20103;-77
2023/05/25 08:01:30;;;;;;;;;;;;;;;17.30;64.88;93128.06;2048388;70;20512;-77
2023/05/25 08:03:56;;;;;;;;;;;;;;;17.46;62.56;93128.75;2048179;70;20076;-77
2023/05/25 08:06:22;;;;;;;;;;;;;;;17.89;59.96;93128.44;2048280;70;20047;-78
2023/05/25 08:08:48;;;;;;;;;;;;;;;17.89;57.11;93136.25;2048378;70;20122;-77
2023/05/25 08:11:15;;;;;;;;;;;;;;;18.38;56.75;93132.47;2048275;70;20154;-77
2023/05/25 08:13:40;;;;;;;;;;;;;;;18.60;54.47;93129.72;2048079;70;20138;-77
2023/05/25 08:16:07;;;;;;;;;;;;;;;19.10;55.46;93127.31;2048448;70;20059;-78
2023/05/25 08:18:32;;;;;;;;;;;;;;;19.43;56.14;93132.81;2048483;70;20051;-77
2023/05/25 08:20:58;;;;;;;;;;;;;;;19.21;52.37;93132.75;2048366;70;20047;-78
2023/05/25 08:23:23;;;;;;;;;;;;;;;19.66;52.10;93134.31;2048191;70;20169;-78
2023/05/25 08:25:49;;;;;;;;;;;;;;;19.70;52.64;93120.19;2048281;70;20050;-78
2023/05/25 08:28:15;;;;;;;;;;;;;;;20.30;55.46;93135.00;2048163;70;20130;-78
2023/05/25 08:30:42;;;;;;;;;;;;;;;20.20;50.13;93131.78;2053358;70;20234;-78
2023/05/25 08:33:09;;;;;;;;;;;;;;;20.73;49.19;93135.59;2054891;69;20054;-78
2023/05/25 08:35:38;;;;;;;;;;;;;;;19.79;48.08;93133.34;2054788;69;20567;-76
2023/05/25 08:38:03;;;;;;;;;;;;;;;19.58;49.33;93125.44;2054762;69;20046;-77
2023/05/25 08:40:29;;;;;;;;;;;;;;;20.51;48.22;93133.50;2054740;69;20053;-76
2023/05/25 08:42:54;;;;;;;;;;;;;;;20.50;45.49;93134.91;2054707;69;20121;-76
2023/05/25 08:45:20;;;;;;;;;;;;;;;19.90;46.00;93130.81;2054831;70;20153;-76
2023/05/25 08:47:47;;;;;;;;;;;;;;;20.77;45.48;93132.84;2054767;69;20050;-76
2023/05/25 08:50:14;;;;;;;;;;;;;;;21.55;45.57;93136.53;2054775;69;20082;-77
2023/05/25 08:52:43;;;;;;;;;;;;;;;21.26;45.69;93132.13;2054755;69;20440;-77
2023/05/25 08:55:09;;;;;;;;;;;;;;;21.91;45.24;93135.28;2054870;69;20062;-77
2023/05/25 08:57:55;;;;;;;;;;;;;;;20.61;45.51;93129.50;2054115;70;20109;-77
2023/05/25 09:00:24;;;;;;;;;;;;;;;20.50;45.64;93122.75;2053405;70;20085;-77
2023/05/25 09:03:05;;;;;;;;;;;;;;;20.90;45.61;93133.94;2054688;69;20146;-77
2023/05/25 09:05:33;;;;;;;;;;;;;;;21.52;45.43;93137.88;2054929;69;20050;-77
2023/05/25 09:07:59;;;;;;;;;;;;;;;22.65;43.69;93149.28;2055030;69;20054;-77
2023/05/25 09:10:26;;;;;;;;;;;;;;;22.83;42.94;93150.44;2054726;69;20105;-77
2023/05/25 09:12:52;;;;;;;;;;;;;;;23.66;43.80;93142.13;2054919;69;20050;-78
2023/05/25 09:15:18;;;;;;;;;;;;;;;24.25;40.74;93145.34;2054873;69;20050;-77
2023/05/25 09:17:43;;;;;;;;;;;;;;;23.18;42.66;93144.72;2054863;69;20050;-77
2023/05/25 09:20:12;;;;;;;;;;;;;;;23.81;41.86;93140.25;2054734;69;20054;-77
2023/05/25 09:22:39;;;;;;;;;;;;;;;24.57;41.48;93150.91;2054715;69;20497;-77
2023/05/25 09:25:05;;;;;;;;;;;;;;;25.13;41.66;93141.66;2054720;69;20093;-77
2023/05/25 09:27:32;;;;;;;;;;;;;;;24.44;40.05;93140.63;2054876;69;20102;-77
2023/05/25 09:30:00;;;;;;;;;;;;;;;24.39;38.95;93136.97;2054684;70;20048;-77
2023/05/25 09:32:25;;;;;;;;;;;;;;;24.97;39.12;93138.53;2054839;70;20054;-77
2023/05/25 09:34:52;;;;;;;;;;;;;;;25.46;37.95;93145.69;2054681;69;20072;-77
2023/05/25 09:37:17;;;;;;;;;;;;;;;25.02;40.33;93140.78;2054761;69;20102;-77
2023/05/25 09:39:43;;;;;;;;;;;;;;;25.17;38.68;93138.13;2054645;69;20494;-77
2023/05/25 09:42:09;;;;;;;;;;;;;;;25.65;38.00;93140.84;2054680;69;20053;-77
2023/05/25 09:44:34;;;;;;;;;;;;;;;26.16;37.02;93143.56;2054726;69;20053;-78
2023/05/25 09:47:00;;;;;;;;;;;;;;;26.70;37.90;93142.63;2054626;69;20073;-77
2023/05/25 09:49:26;;;;;;;;;;;;;;;25.76;38.20;93139.59;2054663;69;20106;-77
2023/05/25 09:51:51;;;;;;;;;;;;;;;26.66;35.97;93134.66;2054883;69;20097;-77
2023/05/25 09:54:17;;;;;;;;;;;;;;;27.26;35.54;93133.63;2054848;69;20090;-77
2023/05/25 09:56:43;;;;;;;;;;;;;;;26.20;36.04;93126.31;2054691;69;20501;-77
2023/05/25 09:59:08;;;;;;;;;;;;;;;26.30;36.54;93135.78;2054546;69;20145;-77
2023/05/25 10:01:35;;;;;;;;;;;;;;;27.57;34.87;93139.53;2054640;69;20046;-77
2023/05/25 10:04:00;;;;;;;;;;;;;;;28.25;35.46;93131.78;2054672;69;20070;-78
2023/05/25 10:06:26;;;;;;;;;;;;;;;26.75;35.39;93126.75;2054756;69;20410;-77
2023/05/25 10:08:55;;;;;;;;;;;;;;;26.48;37.57;93128.72;2057716;69;20051;-77
2023/05/25 10:11:21;;;;;;;;;;;;;;;27.44;36.47;93126.47;2054669;70;20482;-77
2023/05/25 10:13:48;;;;;;;;;;;;;;;28.65;33.97;93122.44;2054731;69;20489;-78
2023/05/25 10:16:16;;;;;;;;;;;;;;;29.28;31.65;93115.84;2054606;69;20046;-78
2023/05/25 10:18:54;;;;;;;;;;;;;;;27.27;34.64;93108.34;2054427;69;20058;-78
2023/05/25 10:21:21;;;;;;;;;;;;;;;29.42;32.02;93118.69;2054173;70;20407;-78
2023/05/25 10:23:49;;;;;;;;;;;;;;;30.17;30.90;93119.81;2054639;69;20051;-78
2023/05/25 10:26:18;;;;;;;;;;;;;;;30.11;30.68;93112.56;2054891;69;20055;-78
2023/05/25 10:28:44;;;;;;;;;;;;;;;30.53;30.34;93110.13;2054524;69;20101;-78
2023/05/25 10:31:11;;;;;;;;;;;;;;;30.83;29.54;93109.16;2054605;69;20057;-78
2023/05/25 10:33:36;;;;;;;;;;;;;;;31.41;29.12;93106.44;2054691;69;20202;-77
2023/05/25 10:36:02;;;;;;;;;;;;;;;32.04;27.37;93112.22;2054633;69;20426;-78
2023/05/25 10:38:30;;;;;;;;;;;;;;;34.23;26.33;93108.44;2054479;69;20057;-78
2023/05/25 10:40:57;;;;;;;;;;;;;;;33.17;25.91;93110.47;2054620;69;20081;-82
2023/05/25 10:43:22;;;;;;;;;;;;;;;36.59;24.25;93104.41;2054425;69;20137;-77
2023/05/25 10:45:51;;;;;;;;;;;;;;;34.96;23.72;93105.97;2055055;69;20134;-77
2023/05/25 10:48:17;;;;;;;;;;;;;;;37.29;21.99;93109.44;2054737;69;20505;-77
2023/05/25 10:50:48;;;;;;;;;;;;;;;38.61;21.19;93106.16;2054670;69;20038;-77
2023/05/25 10:53:15;;;;;;;;;;;;;;;39.51;20.59;93109.13;2054759;69;20085;-77
2023/05/25 10:55:52;;;;;;;;;;;;;;;40.27;19.74;93105.81;2054609;69;20223;-77
2023/05/25 10:58:18;;;;;;;;;;;;;;;41.79;20.67;93091.09;2054447;69;20058;-78
2023/05/25 11:00:56;;;;;;;;;;;;;;;42.59;18.33;93097.13;2054583;69;20051;-78
2023/05/25 11:03:22;;;;;;;;;;;;;;;42.28;17.89;93100.31;2054402;69;20478;-78
2023/05/25 11:05:50;;;;;;;;;;;;;;;41.26;19.16;93087.84;2054518;70;20046;-79
2023/05/25 11:08:18;;;;;;;;;;;;;;;41.13;18.28;93091.41;2054494;69;20137;-77
2023/05/25 11:10:43;;;;;;;;;;;;;;;43.14;15.88;93090.38;2054483;69;20053;-79
2023/05/25 11:13:21;;;;;;;;;;;;;;;41.88;16.66;93086.19;2054440;69;20074;-77
2023/05/25 11:15:47;;;;;;;;;;;;;;;43.78;17.70;93090.34;2054588;69;20215;-78
2023/05/25 11:18:16;;;;;;;;;;;;;;;43.83;15.79;93088.59;2054611;69;20046;-77
2023/05/25 11:20:43;;;;;;;;;;;;;;;44.59;13.99;93087.63;2054592;69;20074;-78
2023/05/25 11:23:31;;;;;;;;;;;;;;;45.35;13.93;93084.16;2054373;69;20049;-77
2023/05/25 11:26:03;;;;;;;;;;;;;;;48.08;12.99;93087.78;2054479;70;20062;-78
2023/05/25 11:28:31;;;;;;;;;;;;;;;47.75;13.45;93089.56;2054414;69;20081;-78
2023/05/25 11:30:56;;;;;;;;;;;;;;;48.86;11.88;93087.66;2054436;70;20569;-79
2023/05/25 11:33:25;;;;;;;;;;;;;;;49.63;12.51;93095.56;2055140;69;20038;-79
2023/05/25 11:35:51;;;;;;;;;;;;;;;45.19;13.68;93075.66;2055143;69;20054;-79
2023/05/25 11:38:16;;;;;;;;;;;;;;;49.85;12.31;93084.72;2055042;69;20051;-78
2023/05/25 11:40:42;;;;;;;;;;;;;;;49.28;12.61;93070.81;2055202;69;20061;-78
2023/05/25 11:43:08;;;;;;;;;;;;;;;50.97;11.84;93074.28;2054440;70;20046;-79
2023/05/25 11:45:36;;;;;;;;;;;;;;;46.91;11.24;93065.22;2055170;69;20491;-79
2023/05/25 11:48:04;;;;;;;;;;;;;;;44.94;12.96;93056.41;2055143;69;20073;-79
2023/05/25 11:50:30;;;;;;;;;;;;;;;49.13;12.74;93068.28;2055133;69;20108;-79
2023/05/25 11:52:59;;;;;;;;;;;;;;;49.95;11.23;93059.22;2055248;69;20101;-78
2023/05/25 11:55:24;;;;;;;;;;;;;;;51.03;10.69;93058.06;2055381;69;20506;-79
2023/05/25 11:57:56;;;;;;;;;;;;;;;47.93;11.50;93053.91;2058865;69;20070;-79
2023/05/25 12:00:26;;;;;;;;;;;;;;;50.16;11.20;93048.50;2056037;69;20089;-79
2023/05/25 12:02:55;;;;;;;;;;;;;;;51.98;10.51;93051.59;2055182;69;20141;-79
2023/05/25 12:05:21;;;;;;;;;;;;;;;48.28;11.20;93034.00;2055076;69;20051;-80
2023/05/25 12:07:47;;;;;;;;;;;;;;;48.50;11.60;93038.22;2055130;69;20503;-80
2023/05/25 12:10:15;;;;;;;;;;;;;;;49.49;11.74;93039.91;2055344;69;20093;-80
2023/05/25 12:12:45;;;;;;;;;;;;;;;47.78;10.81;93028.16;2055002;69;20072;-77
2023/05/25 12:15:23;;;;;;;;;;;;;;;46.61;12.16;93021.22;2055087;69;20053;-80
2023/05/25 12:17:49;;;;;;;;;;;;;;;48.78;11.27;93028.56;2055113;69;20488;-80
2023/05/25 12:20:15;;;;;;;;;;;;;;;49.11;11.55;93024.31;2055061;69;20438;-78
2023/05/25 12:22:41;;;;;;;;;;;;;;;49.87;11.64;93021.00;2055209;69;20105;-79
2023/05/25 12:25:09;;;;;;;;;;;;;;;47.74;10.72;93013.56;2054967;69;20053;-79
2023/05/25 12:27:35;;;;;;;;;;;;;;;47.83;11.21;93008.38;2055069;69;20247;-79
2023/05/25 12:30:02;;;;;;;;;;;;;;;49.27;11.21;93007.31;2055036;69;20077;-79
2023/05/25 12:32:27;;;;;;;;;;;;;;;49.27;12.01;93006.63;2055035;69;20479;-78
2023/05/25 12:35:04;;;;;;;;;;;;;;;44.87;12.86;92996.72;2055005;69;20054;-78
2023/05/25 12:37:30;;;;;;;;;;;;;;;38.46;17.76;92979.56;2055133;69;20090;-79
2023/05/25 12:39:56;;;;;;;;;;;;;;;34.77;19.74;92974.16;2054937;70;20086;-80
2023/05/25 12:42:25;;;;;;;;;;;;;;;35.18;19.56;92976.72;2054469;70;20055;-79
2023/05/25 12:44:53;;;;;;;;;;;;;;;35.19;20.84;92966.47;2054998;69;20070;-79
2023/05/25 12:47:24;;;;;;;;;;;;;;;35.18;22.26;92970.84;2055069;69;20055;-79